Deer Park, AL (36529)

7:34 AM CDT on July 23, 2016 (GMT -0500)
GCSD-BusShop | | Change Station

Elev 125 ft 31.16 °N, 88.56 °W | Updated 3 minutes ago

Mostly Cloudy
Mostly Cloudy
74.6 °F
Feels Like 73 °F
N
1.0
Wind Variable Wind from SE
Gusts 1.0 mph

Today
High -- | Low -- °F
--% Chance of Precip.
Yesterday
High -- | Low -- °F
Precip. -- in
Pressure 30.01 in
Visibility 10.0 miles
Clouds Few 2200 ft
Mostly Cloudy 25000 ft
Heat Index 73 °F
Dew Point 73 °F
Humidity 94%
Rainfall 0.00 in
Snow Depth Not available.
6:04 AM 7:54 PM
Waning Gibbous, 85% visible
METAR KMOB 231156Z 00000KT 10SM FEW022 BKN250 23/22 A3002 RMK AO2 SLP162 CB DSNT SE TCU DSNT E AND S 70031 T02330222 10239 20228 53003
Pressure 30.01 in
Visibility 10.0 miles
Clouds Few 2200 ft
Mostly Cloudy 25000 ft
Heat Index 73 °F
Dew Point 73 °F
Humidity 94%
Rainfall 0.00 in
Snow Depth Not available.
6:04 AM 7:54 PM
Waning Gibbous, 85% visible
METAR KMOB 231156Z 00000KT 10SM FEW022 BKN250 23/22 A3002 RMK AO2 SLP162 CB DSNT SE TCU DSNT E AND S 70031 T02330222 10239 20228 53003

10-Day Weather Forecast

Almanac

Astronomy

Jul. 23, 2016 Rise Set
Actual Time
Civil Twilight
Nautical Twilight
Astronomical Twilight
Moon
Length of Visible Light
Length of Day
Tomorrow will be .
, % of the Moon is Illuminated

Today's Extremes

State Highs State Lows

Community

WunderPhotos

Upload Photos

1,926,815 photos uploaded!

WunderBlog® & News

Nearby

Air Quality

  Air Quality AQ Index Pollutant
Not available.

Snow Depth

Station Depth Elevation

Earthquake Activity

City Distance Mag. Time & Date
Minimum magnitude displayed is 2.5.

Coastal Water Temperatures

Place Temperature

Stations

Nearby Weather Stations

Station Location Temp. Windchill Dew Point Humidity Wind Precip. Elev Updated Type
                   

Watches & Warnings

There are currently no watches in effect.